Time;durP1;ratioP1;P1;durP2;ratioP2;P2;SDS_P1;SDS_P2;PMS_P1;PMS_P2;Temp;Humidity;BMP_temperature;BMP_pressure;BME280_temperature;BME280_humidity;BME280_pressure;Samples;Min_cycle;Max_cycle;Signal;HPM_P1;HPM_P2
2023/04/09 00:00:46;;;;;;;;;;;;;;;;;;5055699;28;20415;-68
2023/04/09 00:03:12;;;;;;;;;;;;;;;;;;5057346;28;19958;-67
2023/04/09 00:05:39;;;;;;;;;;;;;;;;;;5057283;28;19956;-65
2023/04/09 00:08:04;;;;;;;;;;;;;;;;;;5057282;28;19956;-69
2023/04/09 00:10:30;;;;;;;;;;;;;;;;;;5057494;28;20043;-67
2023/04/09 00:12:56;;;;;;;;;;;;;;;;;;5057147;28;19956;-66
2023/04/09 00:15:22;;;;;;;;;;;;;;;;;;5057017;28;19982;-65
2023/04/09 00:17:48;;;;;;;;;;;;;;;;;;5057344;28;19954;-67
2023/04/09 00:20:14;;;;;;;;;;;;;;;;;;5057011;28;20017;-66
2023/04/09 00:22:40;;;;;;;;;;;;;;;;;;5056585;28;20090;-68
2023/04/09 00:25:07;;;;;;;;;;;;;;;;;;5056951;28;19999;-65
2023/04/09 00:27:33;;;;;;;;;;;;;;;;;;5055428;28;19969;-68
2023/04/09 00:29:59;;;;;;;;;;;;;;;;;;5057139;28;19969;-69
2023/04/09 00:32:24;;;;;;;;;;;;;;;;;;5057107;28;19963;-66
2023/04/09 00:34:51;;;;;;;;;;;;;;;;;;5056741;28;20101;-66
2023/04/09 00:37:17;;;;;;;;;;;;;;;;;;5057076;28;20411;-67
2023/04/09 00:39:43;;;;;;;;;;;;;;;;;;5056714;28;19960;-66
2023/04/09 00:42:09;;;;;;;;;;;;;;;;;;5056691;28;19956;-68
2023/04/09 00:44:35;;;;;;;;;;;;;;;;;;5056585;28;20005;-66
2023/04/09 00:47:01;;;;;;;;;;;;;;;;;;5056866;28;20411;-68
2023/04/09 00:49:27;;;;;;;;;;;;;;;;;;5056790;28;19963;-66
2023/04/09 00:51:53;;;;;;;;;;;;;;;;;;5056744;28;20501;-67
2023/04/09 00:54:19;;;;;;;;;;;;;;;;;;5056972;28;19957;-67
2023/04/09 00:56:44;;;;;;;;;;;;;;;;;;5056494;28;19980;-68
2023/04/09 00:59:10;;;;;;;;;;;;;;;;;;5056883;28;19956;-66
2023/04/09 01:01:36;;;;;;;;;;;;;;;;;;5056292;28;19956;-67
2023/04/09 01:04:02;;;;;;;;;;;;;;;;;;5056793;28;19963;-69
2023/04/09 01:06:28;;;;;;;;;;;;;;;;;;5054923;28;20044;-65
2023/04/09 01:08:54;;;;;;;;;;;;;;;;;;5056185;28;19953;-67
2023/04/09 01:11:20;;;;;;;;;;;;;;;;;;5055969;28;19955;-68
2023/04/09 01:13:46;;;;;;;;;;;;;;;;;;5056295;28;19982;-67
2023/04/09 01:16:12;;;;;;;;;;;;;;;;;;5056476;28;19980;-66
2023/04/09 01:18:38;;;;;;;;;;;;;;;;;;5055927;28;20427;-66
2023/04/09 01:21:04;;;;;;;;;;;;;;;;;;5055972;28;19992;-65
2023/04/09 01:23:30;;;;;;;;;;;;;;;;;;5056149;28;19955;-68
2023/04/09 01:25:56;;;;;;;;;;;;;;;;;;5056130;28;19958;-67
2023/04/09 01:28:22;;;;;;;;;;;;;;;;;;5055768;28;19956;-66
2023/04/09 01:30:48;;;;;;;;;;;;;;;;;;5055645;28;19972;-69
2023/04/09 01:33:14;;;;;;;;;;;;;;;;;;5056238;28;19963;-67
2023/04/09 01:35:40;;;;;;;;;;;;;;;;;;5055549;28;19982;-66
2023/04/09 01:38:06;;;;;;;;;;;;;;;;;;5055838;28;19953;-66
2023/04/09 01:40:31;;;;;;;;;;;;;;;;;;5055559;28;19956;-68
2023/04/09 01:42:57;;;;;;;;;;;;;;;;;;5055499;28;19955;-65
2023/04/09 01:45:23;;;;;;;;;;;;;;;;;;5055722;28;19958;-65
2023/04/09 01:47:49;;;;;;;;;;;;;;;;;;5055413;28;19984;-65
2023/04/09 01:50:15;;;;;;;;;;;;;;;;;;5055360;28;20009;-67
2023/04/09 01:52:41;;;;;;;;;;;;;;;;;;5055240;28;20332;-65
2023/04/09 01:55:07;;;;;;;;;;;;;;;;;;5055169;28;20089;-66
2023/04/09 01:57:33;;;;;;;;;;;;;;;;;;5055523;28;19999;-67
2023/04/09 01:59:59;;;;;;;;;;;;;;;;;;5055989;28;19959;-66
2023/04/09 02:02:24;;;;;;;;;;;;;;;;;;5055146;28;19955;-67
2023/04/09 02:04:50;;;;;;;;;;;;;;;;;;5055068;28;19956;-66
2023/04/09 02:07:16;;;;;;;;;;;;;;;;;;5055040;28;19963;-66
2023/04/09 02:09:42;;;;;;;;;;;;;;;;;;5055229;28;19970;-65
2023/04/09 02:12:08;;;;;;;;;;;;;;;;;;5055488;28;19960;-66
2023/04/09 02:14:34;;;;;;;;;;;;;;;;;;5054955;28;20046;-65
2023/04/09 02:17:00;;;;;;;;;;;;;;;;;;5055675;28;20030;-67
2023/04/09 02:19:26;;;;;;;;;;;;;;;;;;5054787;28;20377;-68
2023/04/09 02:21:52;;;;;;;;;;;;;;;;;;5054438;28;20074;-67
2023/04/09 02:24:17;;;;;;;;;;;;;;;;;;5054435;28;19956;-68
2023/04/09 02:26:43;;;;;;;;;;;;;;;;;;5054946;28;19954;-65
2023/04/09 02:29:09;;;;;;;;;;;;;;;;;;5055090;28;19979;-67
2023/04/09 02:31:35;;;;;;;;;;;;;;;;;;5054552;28;19997;-66
2023/04/09 02:34:01;;;;;;;;;;;;;;;;;;5054507;28;20054;-66
2023/04/09 02:36:27;;;;;;;;;;;;;;;;;;5054392;28;20000;-66
2023/04/09 02:38:53;;;;;;;;;;;;;;;;;;5054717;28;19965;-68
2023/04/09 02:41:19;;;;;;;;;;;;;;;;;;5054388;28;19955;-66
2023/04/09 02:43:45;;;;;;;;;;;;;;;;;;5054345;28;20429;-65
2023/04/09 02:46:11;;;;;;;;;;;;;;;;;;5054851;28;19956;-68
2023/04/09 02:48:37;;;;;;;;;;;;;;;;;;5054265;28;19954;-68
2023/04/09 02:51:03;;;;;;;;;;;;;;;;;;5054502;28;19965;-66
2023/04/09 02:53:29;;;;;;;;;;;;;;;;;;5054216;28;19970;-67
2023/04/09 02:55:55;;;;;;;;;;;;;;;;;;5054327;28;20037;-67
2023/04/09 02:58:21;;;;;;;;;;;;;;;;;;5054375;28;19956;-66
2023/04/09 03:00:46;;;;;;;;;;;;;;;;;;5054042;28;20010;-66
2023/04/09 03:03:12;;;;;;;;;;;;;;;;;;5054011;28;19972;-66
2023/04/09 03:05:38;;;;;;;;;;;;;;;;;;5053992;28;20004;-67
2023/04/09 03:08:04;;;;;;;;;;;;;;;;;;5054480;28;20431;-66
2023/04/09 03:10:30;;;;;;;;;;;;;;;;;;5053912;28;19955;-65
2023/04/09 03:12:56;;;;;;;;;;;;;;;;;;5054152;28;19956;-66
2023/04/09 03:15:22;;;;;;;;;;;;;;;;;;5053786;28;20430;-66
2023/04/09 03:17:48;;;;;;;;;;;;;;;;;;5054109;28;19986;-66
2023/04/09 03:20:14;;;;;;;;;;;;;;;;;;5053815;28;20427;-69
2023/04/09 03:22:39;;;;;;;;;;;;;;;;;;5053324;28;19999;-66
2023/04/09 03:25:06;;;;;;;;;;;;;;;;;;5053987;28;19955;-68
2023/04/09 03:27:32;;;;;;;;;;;;;;;;;;5052160;28;20012;-65
2023/04/09 03:29:58;;;;;;;;;;;;;;;;;;5053584;28;20451;-66
2023/04/09 03:32:24;;;;;;;;;;;;;;;;;;5053633;28;19997;-66
2023/04/09 03:34:50;;;;;;;;;;;;;;;;;;5053720;28;20326;-66
2023/04/09 03:37:16;;;;;;;;;;;;;;;;;;5053822;28;19960;-68
2023/04/09 03:39:42;;;;;;;;;;;;;;;;;;5054078;28;19956;-66
2023/04/09 03:42:08;;;;;;;;;;;;;;;;;;5053768;28;19959;-68
2023/04/09 03:44:33;;;;;;;;;;;;;;;;;;5054561;28;19981;-68
2023/04/09 03:46:59;;;;;;;;;;;;;;;;;;5053755;28;19955;-66
2023/04/09 03:49:25;;;;;;;;;;;;;;;;;;5053460;28;20420;-68
2023/04/09 03:51:51;;;;;;;;;;;;;;;;;;5053748;28;19987;-68
2023/04/09 03:54:17;;;;;;;;;;;;;;;;;;5053405;28;20422;-68
2023/04/09 03:56:43;;;;;;;;;;;;;;;;;;5053347;28;20013;-65
2023/04/09 03:59:09;;;;;;;;;;;;;;;;;;5053424;28;19954;-68
2023/04/09 04:01:35;;;;;;;;;;;;;;;;;;5053644;28;19955;-66
2023/04/09 04:04:01;;;;;;;;;;;;;;;;;;5053358;28;20043;-67
2023/04/09 04:06:27;;;;;;;;;;;;;;;;;;5053586;28;19988;-65
2023/04/09 04:08:53;;;;;;;;;;;;;;;;;;5053540;28;19984;-66
2023/04/09 04:11:18;;;;;;;;;;;;;;;;;;5053317;28;19998;-66
2023/04/09 04:13:44;;;;;;;;;;;;;;;;;;5053571;28;19956;-65
2023/04/09 04:16:10;;;;;;;;;;;;;;;;;;5053439;28;20446;-67
2023/04/09 04:18:36;;;;;;;;;;;;;;;;;;5053776;28;19963;-67
2023/04/09 04:21:02;;;;;;;;;;;;;;;;;;5052970;28;20577;-68
2023/04/09 04:23:28;;;;;;;;;;;;;;;;;;5053166;28;19997;-65
2023/04/09 04:25:55;;;;;;;;;;;;;;;;;;5053407;28;20049;-66
2023/04/09 04:28:21;;;;;;;;;;;;;;;;;;5053667;28;19961;-67
2023/04/09 04:30:47;;;;;;;;;;;;;;;;;;5053000;28;20370;-67
2023/04/09 04:33:13;;;;;;;;;;;;;;;;;;5053051;28;19959;-67
2023/04/09 04:35:39;;;;;;;;;;;;;;;;;;5053509;28;20380;-68
2023/04/09 04:38:05;;;;;;;;;;;;;;;;;;5053259;28;20002;-65
2023/04/09 04:40:31;;;;;;;;;;;;;;;;;;5053192;28;19960;-66
2023/04/09 04:42:57;;;;;;;;;;;;;;;;;;5053021;28;20066;-67
2023/04/09 04:45:24;;;;;;;;;;;;;;;;;;5052987;28;19959;-66
2023/04/09 04:47:50;;;;;;;;;;;;;;;;;;5056876;28;20033;-65
2023/04/09 04:50:16;;;;;;;;;;;;;;;;;;5056504;28;20002;-67
2023/04/09 04:52:41;;;;;;;;;;;;;;;;;;5056501;28;20379;-68
2023/04/09 04:55:07;;;;;;;;;;;;;;;;;;5056393;28;19954;-68
2023/04/09 04:57:33;;;;;;;;;;;;;;;;;;5054924;28;20339;-66
2023/04/09 04:59:59;;;;;;;;;;;;;;;;;;5056378;28;19955;-67
2023/04/09 05:02:25;;;;;;;;;;;;;;;;;;5056560;28;19955;-68
2023/04/09 05:04:51;;;;;;;;;;;;;;;;;;5056240;28;20046;-66
2023/04/09 05:07:17;;;;;;;;;;;;;;;;;;5056451;28;20050;-64
2023/04/09 05:09:43;;;;;;;;;;;;;;;;;;5056411;28;20437;-65
2023/04/09 05:12:09;;;;;;;;;;;;;;;;;;5056628;28;19956;-67
2023/04/09 05:14:35;;;;;;;;;;;;;;;;;;5056051;28;19957;-68
2023/04/09 05:17:01;;;;;;;;;;;;;;;;;;5055958;28;19985;-66
2023/04/09 05:19:27;;;;;;;;;;;;;;;;;;5055910;28;19955;-66
2023/04/09 05:21:53;;;;;;;;;;;;;;;;;;5055737;28;20160;-67
2023/04/09 05:24:19;;;;;;;;;;;;;;;;;;5056111;28;20344;-66
2023/04/09 05:26:45;;;;;;;;;;;;;;;;;;5055764;28;19956;-68
2023/04/09 05:29:11;;;;;;;;;;;;;;;;;;5056445;28;20339;-67
2023/04/09 05:31:39;;;;;;;;;;;;;;;;;;5055683;28;19960;-67
2023/04/09 05:34:05;;;;;;;;;;;;;;;;;;5055741;28;19962;-68
2023/04/09 05:36:31;;;;;;;;;;;;;;;;;;5055884;28;19976;-66
2023/04/09 05:38:57;;;;;;;;;;;;;;;;;;5055607;28;20042;-66
2023/04/09 05:41:22;;;;;;;;;;;;;;;;;;5055837;28;19963;-69
2023/04/09 05:43:48;;;;;;;;;;;;;;;;;;5055492;28;19980;-66
2023/04/09 05:46:14;;;;;;;;;;;;;;;;;;5055773;28;20000;-68
2023/04/09 05:48:41;;;;;;;;;;;;;;;;;;5055421;28;19987;-69
2023/04/09 05:51:08;;;;;;;;;;;;;;;;;;5055370;28;20442;-66
2023/04/09 05:53:33;;;;;;;;;;;;;;;;;;5055316;28;19970;-68
2023/04/09 05:55:59;;;;;;;;;;;;;;;;;;5055761;28;19974;-66
2023/04/09 05:58:26;;;;;;;;;;;;;;;;;;5054137;28;20043;-67
2023/04/09 06:00:52;;;;;;;;;;;;;;;;;;5055521;28;19956;-66
2023/04/09 06:03:18;;;;;;;;;;;;;;;;;;5055141;28;19954;-66
2023/04/09 06:05:43;;;;;;;;;;;;;;;;;;5055670;28;19955;-68
2023/04/09 06:08:09;;;;;;;;;;;;;;;;;;5055072;28;19956;-68
2023/04/09 06:10:35;;;;;;;;;;;;;;;;;;5055267;28;19954;-64
2023/04/09 06:13:01;;;;;;;;;;;;;;;;;;5054930;28;19962;-67
2023/04/09 06:15:27;;;;;;;;;;;;;;;;;;5054880;28;19975;-66
2023/04/09 06:17:53;;;;;;;;;;;;;;;;;;5054867;28;19963;-66
2023/04/09 06:20:20;;;;;;;;;;;;;;;;;;5054851;28;19961;-68
2023/04/09 06:22:45;;;;;;;;;;;;;;;;;;5054384;28;20097;-67
2023/04/09 06:25:11;;;;;;;;;;;;;;;;;;5054999;28;19964;-68
2023/04/09 06:27:37;;;;;;;;;;;;;;;;;;5054685;28;20050;-68
2023/04/09 06:30:03;;;;;;;;;;;;;;;;;;5054695;28;20023;-66
2023/04/09 06:32:29;;;;;;;;;;;;;;;;;;5054556;28;20438;-67
2023/04/09 06:34:55;;;;;;;;;;;;;;;;;;5054767;28;19962;-67
2023/04/09 06:37:21;;;;;;;;;;;;;;;;;;5054782;28;19959;-68
2023/04/09 06:39:47;;;;;;;;;;;;;;;;;;5054470;28;19956;-68
2023/04/09 06:42:13;;;;;;;;;;;;;;;;;;5054729;28;20039;-65
2023/04/09 06:44:39;;;;;;;;;;;;;;;;;;5055157;28;20378;-68
2023/04/09 06:47:05;;;;;;;;;;;;;;;;;;5054563;28;19953;-67
2023/04/09 06:49:30;;;;;;;;;;;;;;;;;;5054802;28;20006;-67
2023/04/09 06:51:56;;;;;;;;;;;;;;;;;;5054199;28;19953;-67
2023/04/09 06:54:22;;;;;;;;;;;;;;;;;;5054255;28;19955;-67
2023/04/09 06:56:48;;;;;;;;;;;;;;;;;;5054094;28;19975;-69
2023/04/09 06:59:15;;;;;;;;;;;;;;;;;;5054093;28;20052;-67
2023/04/09 07:01:41;;;;;;;;;;;;;;;;;;5054352;28;20000;-66
2023/04/09 07:04:07;;;;;;;;;;;;;;;;;;5054015;28;19960;-67
2023/04/09 07:06:33;;;;;;;;;;;;;;;;;;5053991;28;19958;-67
2023/04/09 07:08:59;;;;;;;;;;;;;;;;;;5053630;28;20403;-65
2023/04/09 07:11:25;;;;;;;;;;;;;;;;;;5053940;28;20485;-69
2023/04/09 07:13:51;;;;;;;;;;;;;;;;;;5054437;28;19994;-66
2023/04/09 07:16:17;;;;;;;;;;;;;;;;;;5054078;28;19974;-67
2023/04/09 07:18:43;;;;;;;;;;;;;;;;;;5053820;28;19958;-65
2023/04/09 07:21:09;;;;;;;;;;;;;;;;;;5053795;28;20007;-66
2023/04/09 07:23:37;;;;;;;;;;;;;;;;;;5054283;28;19954;-67
2023/04/09 07:26:03;;;;;;;;;;;;;;;;;;5053719;28;20026;-65
2023/04/09 07:28:29;;;;;;;;;;;;;;;;;;5053959;28;19954;-66
2023/04/09 07:30:55;;;;;;;;;;;;;;;;;;5053575;28;20317;-66
2023/04/09 07:33:21;;;;;;;;;;;;;;;;;;5053601;28;19955;-68
2023/04/09 07:35:47;;;;;;;;;;;;;;;;;;5053497;28;19989;-67
2023/04/09 07:38:13;;;;;;;;;;;;;;;;;;5053594;28;20011;-67
2023/04/09 07:40:39;;;;;;;;;;;;;;;;;;5053829;28;19951;-69
2023/04/09 07:43:05;;;;;;;;;;;;;;;;;;5053524;28;20009;-68
2023/04/09 07:45:31;;;;;;;;;;;;;;;;;;5053516;28;19955;-69
2023/04/09 07:47:57;;;;;;;;;;;;;;;;;;5053773;28;19953;-67
2023/04/09 07:50:23;;;;;;;;;;;;;;;;;;5053734;28;19976;-69
2023/04/09 07:52:49;;;;;;;;;;;;;;;;;;5053738;28;20051;-66
2023/04/09 07:55:15;;;;;;;;;;;;;;;;;;5053380;28;19970;-64
2023/04/09 07:57:41;;;;;;;;;;;;;;;;;;5053408;28;20360;-67
2023/04/09 08:00:08;;;;;;;;;;;;;;;;;;5053391;28;19953;-66
2023/04/09 08:02:34;;;;;;;;;;;;;;;;;;5053371;28;19954;-67
2023/04/09 08:05:01;;;;;;;;;;;;;;;;;;5053839;28;20017;-66
2023/04/09 08:07:27;;;;;;;;;;;;;;;;;;5053680;28;19994;-67
2023/04/09 08:09:53;;;;;;;;;;;;;;;;;;5053299;28;19959;-67
2023/04/09 08:12:18;;;;;;;;;;;;;;;;;;5053269;28;20057;-68
2023/04/09 08:14:44;;;;;;;;;;;;;;;;;;5053261;28;20445;-69
2023/04/09 08:17:10;;;;;;;;;;;;;;;;;;5053471;28;20026;-68
2023/04/09 08:19:36;;;;;;;;;;;;;;;;;;5053207;28;19962;-68
2023/04/09 08:22:02;;;;;;;;;;;;;;;;;;5055878;28;20354;-66
2023/04/09 08:24:28;;;;;;;;;;;;;;;;;;5057289;28;20043;-69
2023/04/09 08:26:55;;;;;;;;;;;;;;;;;;5056975;28;19954;-67
2023/04/09 08:29:21;;;;;;;;;;;;;;;;;;5057068;28;19979;-67
2023/04/09 08:31:47;;;;;;;;;;;;;;;;;;5056914;28;20327;-67
2023/04/09 08:34:14;;;;;;;;;;;;;;;;;;5056845;28;19966;-68
2023/04/09 08:36:40;;;;;;;;;;;;;;;;;;5056725;28;20465;-69
2023/04/09 08:39:06;;;;;;;;;;;;;;;;;;5056767;28;19958;-66
2023/04/09 08:41:32;;;;;;;;;;;;;;;;;;5056964;28;19954;-67
2023/04/09 08:43:58;;;;;;;;;;;;;;;;;;5056712;28;20001;-67
2023/04/09 08:46:25;;;;;;;;;;;;;;;;;;5056886;28;19955;-67
2023/04/09 08:48:51;;;;;;;;;;;;;;;;;;5056777;28;20486;-67
2023/04/09 08:51:16;;;;;;;;;;;;;;;;;;5057105;28;19955;-69
2023/04/09 08:53:42;;;;;;;;;;;;;;;;;;5056459;28;20443;-67
2023/04/09 08:56:08;;;;;;;;;;;;;;;;;;5056367;28;19982;-66
2023/04/09 08:58:34;;;;;;;;;;;;;;;;;;5056398;28;20068;-66
2023/04/09 09:01:00;;;;;;;;;;;;;;;;;;5056581;28;19956;-66
2023/04/09 09:03:26;;;;;;;;;;;;;;;;;;5056562;28;20324;-69
2023/04/09 09:05:52;;;;;;;;;;;;;;;;;;5056253;28;19955;-67
2023/04/09 09:08:18;;;;;;;;;;;;;;;;;;5056166;28;19956;-66
2023/04/09 09:10:44;;;;;;;;;;;;;;;;;;5056163;28;20403;-68
2023/04/09 09:13:10;;;;;;;;;;;;;;;;;;5056340;28;20008;-68
2023/04/09 09:15:36;;;;;;;;;;;;;;;;;;5055979;28;19974;-67
2023/04/09 09:18:02;;;;;;;;;;;;;;;;;;5055991;28;20332;-68
2023/04/09 09:20:28;;;;;;;;;;;;;;;;;;5056019;28;19955;-67
2023/04/09 09:22:53;;;;;;;;;;;;;;;;;;5055636;28;19963;-69
2023/04/09 09:25:24;;;;;;;;;;;;;;;;;;5056427;28;19961;-66
2023/04/09 09:27:50;;;;;;;;;;;;;;;;;;5055974;28;20328;-69
2023/04/09 09:30:16;;;;;;;;;;;;;;;;;;5055719;28;19972;-65
2023/04/09 09:32:42;;;;;;;;;;;;;;;;;;5055547;28;19964;-68
2023/04/09 09:35:09;;;;;;;;;;;;;;;;;;5055895;28;19960;-68
2023/04/09 09:37:35;;;;;;;;;;;;;;;;;;5055674;28;19954;-69
2023/04/09 09:40:01;;;;;;;;;;;;;;;;;;5055866;28;19963;-67
2023/04/09 09:42:27;;;;;;;;;;;;;;;;;;5055574;28;19999;-67
2023/04/09 09:44:53;;;;;;;;;;;;;;;;;;5056152;28;19958;-67
2023/04/09 09:47:19;;;;;;;;;;;;;;;;;;5055486;28;19955;-68
2023/04/09 09:49:45;;;;;;;;;;;;;;;;;;5055473;28;19956;-67
2023/04/09 09:52:11;;;;;;;;;;;;;;;;;;5055965;28;20355;-67
2023/04/09 09:54:37;;;;;;;;;;;;;;;;;;5055588;28;19962;-67
2023/04/09 09:57:03;;;;;;;;;;;;;;;;;;5055232;28;20542;-68
2023/04/09 09:59:29;;;;;;;;;;;;;;;;;;5055285;28;19956;-66
2023/04/09 10:01:54;;;;;;;;;;;;;;;;;;5055194;28;20431;-66
2023/04/09 10:04:21;;;;;;;;;;;;;;;;;;5055440;28;19955;-67
2023/04/09 10:06:47;;;;;;;;;;;;;;;;;;5055126;28;20062;-67
2023/04/09 10:09:12;;;;;;;;;;;;;;;;;;5055665;28;20304;-67
2023/04/09 10:11:41;;;;;;;;;;;;;;;;;;5055033;28;19960;-67
2023/04/09 10:14:07;;;;;;;;;;;;;;;;;;5054968;28;20100;-68
2023/04/09 10:16:33;;;;;;;;;;;;;;;;;;5054808;28;20081;-67
2023/04/09 10:19:00;;;;;;;;;;;;;;;;;;5053584;28;19959;-66
2023/04/09 10:21:26;;;;;;;;;;;;;;;;;;5054615;28;20505;-67
2023/04/09 10:23:52;;;;;;;;;;;;;;;;;;5054781;28;19956;-66
2023/04/09 10:26:18;;;;;;;;;;;;;;;;;;5054700;28;19955;-68
2023/04/09 10:28:44;;;;;;;;;;;;;;;;;;5054847;28;19956;-68
2023/04/09 10:31:12;;;;;;;;;;;;;;;;;;5054113;28;20151;-67
2023/04/09 10:33:38;;;;;;;;;;;;;;;;;;5054830;28;20479;-69
2023/04/09 10:36:04;;;;;;;;;;;;;;;;;;5054399;28;20077;-68
2023/04/09 10:38:30;;;;;;;;;;;;;;;;;;5054405;28;19958;-68
2023/04/09 10:40:56;;;;;;;;;;;;;;;;;;5054695;28;20399;-66
2023/04/09 10:43:23;;;;;;;;;;;;;;;;;;5053722;28;19998;-68
2023/04/09 10:45:53;;;;;;;;;;;;;;;;;;5054496;28;20379;-66
2023/04/09 10:48:19;;;;;;;;;;;;;;;;;;5054786;28;19956;-68
2023/04/09 10:50:45;;;;;;;;;;;;;;;;;;5054470;28;20045;-67
2023/04/09 10:53:11;;;;;;;;;;;;;;;;;;5054431;28;19990;-67
2023/04/09 10:55:37;;;;;;;;;;;;;;;;;;5054039;28;20077;-66
2023/04/09 10:58:03;;;;;;;;;;;;;;;;;;5054099;28;19959;-66
2023/04/09 11:00:29;;;;;;;;;;;;;;;;;;5054105;28;19956;-67
2023/04/09 11:02:55;;;;;;;;;;;;;;;;;;5054144;28;19956;-68
2023/04/09 11:05:21;;;;;;;;;;;;;;;;;;5053768;28;19953;-65
2023/04/09 11:07:47;;;;;;;;;;;;;;;;;;5053962;28;19995;-68
2023/04/09 11:10:13;;;;;;;;;;;;;;;;;;5054400;28;20399;-65
2023/04/09 11:12:39;;;;;;;;;;;;;;;;;;5054154;28;19962;-66
2023/04/09 11:15:04;;;;;;;;;;;;;;;;;;5053744;28;20005;-68
2023/04/09 11:17:30;;;;;;;;;;;;;;;;;;5053818;28;19956;-66
2023/04/09 11:19:56;;;;;;;;;;;;;;;;;;5053783;28;19955;-68
2023/04/09 11:22:22;;;;;;;;;;;;;;;;;;5053332;28;19999;-67
2023/04/09 11:24:49;;;;;;;;;;;;;;;;;;5053701;28;19963;-67
2023/04/09 11:27:18;;;;;;;;;;;;;;;;;;5053909;28;19983;-68
2023/04/09 11:29:44;;;;;;;;;;;;;;;;;;5053519;28;19972;-68
2023/04/09 11:32:10;;;;;;;;;;;;;;;;;;5053909;28;19963;-67
2023/04/09 11:34:36;;;;;;;;;;;;;;;;;;5053942;28;19955;-68
2023/04/09 11:37:05;;;;;;;;;;;;;;;;;;5053570;28;20048;-68
2023/04/09 11:39:31;;;;;;;;;;;;;;;;;;5054155;28;19955;-66
2023/04/09 11:41:57;;;;;;;;;;;;;;;;;;5053602;28;20371;-66
2023/04/09 11:44:23;;;;;;;;;;;;;;;;;;5053818;28;19959;-66
2023/04/09 11:46:49;;;;;;;;;;;;;;;;;;5053502;28;20048;-68
2023/04/09 11:49:15;;;;;;;;;;;;;;;;;;5053557;28;19958;-65
2023/04/09 11:51:41;;;;;;;;;;;;;;;;;;5053719;28;20004;-67
2023/04/09 11:54:07;;;;;;;;;;;;;;;;;;5053715;28;20008;-68
2023/04/09 11:56:34;;;;;;;;;;;;;;;;;;5057353;28;19975;-68
2023/04/09 11:59:00;;;;;;;;;;;;;;;;;;5057769;28;19956;-68
2023/04/09 12:01:26;;;;;;;;;;;;;;;;;;5057448;28;20062;-66
2023/04/09 12:03:52;;;;;;;;;;;;;;;;;;5057950;28;19959;-65
2023/04/09 12:06:18;;;;;;;;;;;;;;;;;;5057360;28;19963;-68
2023/04/09 12:08:43;;;;;;;;;;;;;;;;;;5056053;28;20051;-68
2023/04/09 12:11:09;;;;;;;;;;;;;;;;;;5057862;28;19956;-68
2023/04/09 12:13:35;;;;;;;;;;;;;;;;;;5057537;28;19960;-65
2023/04/09 12:16:04;;;;;;;;;;;;;;;;;;5057705;28;19976;-68
2023/04/09 12:18:30;;;;;;;;;;;;;;;;;;5057133;28;19961;-66
2023/04/09 12:20:56;;;;;;;;;;;;;;;;;;5056929;28;20069;-66
2023/04/09 12:23:22;;;;;;;;;;;;;;;;;;5057552;28;20404;-68
2023/04/09 12:25:48;;;;;;;;;;;;;;;;;;5056884;28;20451;-66
2023/04/09 12:28:17;;;;;;;;;;;;;;;;;;5057238;28;19962;-68
2023/04/09 12:30:43;;;;;;;;;;;;;;;;;;5056919;28;19978;-68
2023/04/09 12:33:09;;;;;;;;;;;;;;;;;;5057152;28;19960;-66
2023/04/09 12:35:36;;;;;;;;;;;;;;;;;;5057069;28;20377;-66
2023/04/09 12:38:03;;;;;;;;;;;;;;;;;;5056814;28;20005;-67
2023/04/09 12:40:30;;;;;;;;;;;;;;;;;;5056784;28;19962;-67
2023/04/09 12:42:55;;;;;;;;;;;;;;;;;;5057007;28;19962;-68
2023/04/09 12:45:21;;;;;;;;;;;;;;;;;;5056685;28;20411;-66
2023/04/09 12:47:47;;;;;;;;;;;;;;;;;;5056626;28;19958;-67
2023/04/09 12:50:14;;;;;;;;;;;;;;;;;;5057119;28;19958;-66
2023/04/09 12:52:40;;;;;;;;;;;;;;;;;;5056501;28;19961;-66
2023/04/09 12:55:06;;;;;;;;;;;;;;;;;;5057050;28;20368;-67
2023/04/09 12:57:32;;;;;;;;;;;;;;;;;;5056376;28;19985;-68
2023/04/09 12:59:58;;;;;;;;;;;;;;;;;;5056379;28;20414;-66
2023/04/09 13:02:24;;;;;;;;;;;;;;;;;;5056325;28;19954;-67
2023/04/09 13:04:51;;;;;;;;;;;;;;;;;;5056859;28;19962;-66
2023/04/09 13:07:18;;;;;;;;;;;;;;;;;;5055932;28;19955;-66
2023/04/09 13:09:44;;;;;;;;;;;;;;;;;;5056193;28;19960;-66
2023/04/09 13:12:10;;;;;;;;;;;;;;;;;;5056111;28;19959;-69
2023/04/09 13:14:36;;;;;;;;;;;;;;;;;;5056113;28;19960;-68
2023/04/09 13:17:02;;;;;;;;;;;;;;;;;;5056246;28;19978;-66
2023/04/09 13:19:28;;;;;;;;;;;;;;;;;;5056017;28;20045;-68
2023/04/09 13:21:53;;;;;;;;;;;;;;;;;;5055902;28;20002;-69
2023/04/09 13:24:19;;;;;;;;;;;;;;;;;;5055901;28;20442;-66
2023/04/09 13:26:46;;;;;;;;;;;;;;;;;;5056172;28;19998;-68
2023/04/09 13:29:11;;;;;;;;;;;;;;;;;;5056025;28;19979;-68
2023/04/09 13:31:37;;;;;;;;;;;;;;;;;;5056159;28;19956;-68
2023/04/09 13:34:05;;;;;;;;;;;;;;;;;;5056097;28;20404;-68
2023/04/09 13:36:31;;;;;;;;;;;;;;;;;;5055646;28;19974;-66
2023/04/09 13:39:03;;;;;;;;;;;;;;;;;;5056236;28;20038;-69
2023/04/09 13:41:29;;;;;;;;;;;;;;;;;;5055674;28;19958;-66
2023/04/09 13:43:55;;;;;;;;;;;;;;;;;;5055564;28;19998;-67
2023/04/09 13:46:20;;;;;;;;;;;;;;;;;;5055595;28;19996;-66
2023/04/09 13:48:46;;;;;;;;;;;;;;;;;;5056040;28;19958;-67
2023/04/09 13:51:12;;;;;;;;;;;;;;;;;;5055418;28;19955;-67
2023/04/09 13:53:38;;;;;;;;;;;;;;;;;;5055411;28;19963;-67
2023/04/09 13:56:04;;;;;;;;;;;;;;;;;;5055557;28;20024;-66
2023/04/09 13:58:30;;;;;;;;;;;;;;;;;;5055273;28;19963;-68
2023/04/09 14:00:56;;;;;;;;;;;;;;;;;;5055275;28;19956;-66
2023/04/09 14:03:22;;;;;;;;;;;;;;;;;;5055504;28;19978;-67
2023/04/09 14:05:48;;;;;;;;;;;;;;;;;;5055439;28;19954;-67
2023/04/09 14:08:14;;;;;;;;;;;;;;;;;;5055146;28;19959;-69
2023/04/09 14:10:39;;;;;;;;;;;;;;;;;;5055336;28;19955;-67
2023/04/09 14:13:09;;;;;;;;;;;;;;;;;;5055004;28;19960;-66
2023/04/09 14:15:35;;;;;;;;;;;;;;;;;;5054873;28;20076;-68
2023/04/09 14:18:01;;;;;;;;;;;;;;;;;;5054352;28;19989;-67
2023/04/09 14:20:27;;;;;;;;;;;;;;;;;;5054462;28;19955;-68
2023/04/09 14:22:53;;;;;;;;;;;;;;;;;;5054871;28;20383;-65
2023/04/09 14:25:19;;;;;;;;;;;;;;;;;;5055035;28;19955;-66
2023/04/09 14:27:45;;;;;;;;;;;;;;;;;;5054710;28;20069;-68
2023/04/09 14:30:11;;;;;;;;;;;;;;;;;;5054799;28;19977;-66
2023/04/09 14:32:37;;;;;;;;;;;;;;;;;;5054584;28;19954;-68
2023/04/09 14:35:03;;;;;;;;;;;;;;;;;;5055076;28;20408;-66
2023/04/09 14:37:29;;;;;;;;;;;;;;;;;;5054495;28;20028;-67
2023/04/09 14:39:55;;;;;;;;;;;;;;;;;;5054447;28;19962;-67
2023/04/09 14:42:21;;;;;;;;;;;;;;;;;;5054496;28;20332;-68
2023/04/09 14:44:47;;;;;;;;;;;;;;;;;;5054758;28;20250;-68
2023/04/09 14:47:13;;;;;;;;;;;;;;;;;;5054386;28;20053;-66
2023/04/09 14:49:39;;;;;;;;;;;;;;;;;;5054207;28;20392;-66
2023/04/09 14:52:05;;;;;;;;;;;;;;;;;;5054305;28;19956;-66
2023/04/09 14:54:32;;;;;;;;;;;;;;;;;;5054180;28;19986;-69
2023/04/09 14:56:58;;;;;;;;;;;;;;;;;;5054381;28;20339;-65
2023/04/09 14:59:24;;;;;;;;;;;;;;;;;;5054127;28;19954;-67
2023/04/09 15:01:51;;;;;;;;;;;;;;;;;;5054091;28;19998;-68
2023/04/09 15:04:17;;;;;;;;;;;;;;;;;;5054320;28;19977;-66
2023/04/09 15:06:44;;;;;;;;;;;;;;;;;;5054000;28;20427;-68
2023/04/09 15:09:10;;;;;;;;;;;;;;;;;;5053894;28;19953;-68
2023/04/09 15:11:35;;;;;;;;;;;;;;;;;;5053845;28;20375;-68
2023/04/09 15:14:02;;;;;;;;;;;;;;;;;;5053886;28;20001;-66
2023/04/09 15:16:28;;;;;;;;;;;;;;;;;;5054290;28;20025;-68
2023/04/09 15:18:54;;;;;;;;;;;;;;;;;;5054172;28;19962;-66
2023/04/09 15:21:20;;;;;;;;;;;;;;;;;;5053508;28;19989;-67
2023/04/09 15:23:46;;;;;;;;;;;;;;;;;;5053590;28;20006;-66
2023/04/09 15:26:12;;;;;;;;;;;;;;;;;;5053733;28;19956;-67
2023/04/09 15:28:38;;;;;;;;;;;;;;;;;;5053697;28;20339;-66
2023/04/09 15:31:04;;;;;;;;;;;;;;;;;;5053688;28;20001;-66
2023/04/09 15:33:31;;;;;;;;;;;;;;;;;;5054140;28;20009;-67
2023/04/09 15:35:57;;;;;;;;;;;;;;;;;;5053555;28;19981;-68
2023/04/09 15:38:23;;;;;;;;;;;;;;;;;;5053884;28;19956;-65
2023/04/09 15:40:49;;;;;;;;;;;;;;;;;;5053577;28;20338;-66
2023/04/09 15:43:16;;;;;;;;;;;;;;;;;;5054122;28;19955;-68
2023/04/09 15:45:42;;;;;;;;;;;;;;;;;;5053859;28;19955;-68
2023/04/09 15:48:08;;;;;;;;;;;;;;;;;;5053453;28;20013;-66
2023/04/09 15:50:33;;;;;;;;;;;;;;;;;;5053980;28;19967;-68
2023/04/09 15:52:59;;;;;;;;;;;;;;;;;;5053450;28;19961;-68
2023/04/09 15:55:25;;;;;;;;;;;;;;;;;;5053668;28;19956;-67
2023/04/09 15:57:51;;;;;;;;;;;;;;;;;;5053543;28;20311;-66
2023/04/09 16:00:17;;;;;;;;;;;;;;;;;;5053878;28;19959;-68
2023/04/09 16:02:43;;;;;;;;;;;;;;;;;;5053440;28;19958;-66
2023/04/09 16:05:09;;;;;;;;;;;;;;;;;;5053673;28;19962;-67
2023/04/09 16:07:35;;;;;;;;;;;;;;;;;;5053630;28;20002;-67
2023/04/09 16:10:01;;;;;;;;;;;;;;;;;;5053325;28;20322;-66
2023/04/09 16:12:27;;;;;;;;;;;;;;;;;;5054105;28;19955;-66
2023/04/09 16:14:53;;;;;;;;;;;;;;;;;;5053221;28;19955;-67
2023/04/09 16:17:19;;;;;;;;;;;;;;;;;;5053367;28;20020;-66
2023/04/09 16:19:45;;;;;;;;;;;;;;;;;;5053215;28;19954;-68
2023/04/09 16:22:11;;;;;;;;;;;;;;;;;;5053166;28;20370;-67
2023/04/09 16:24:37;;;;;;;;;;;;;;;;;;5053482;28;19991;-69
2023/04/09 16:27:03;;;;;;;;;;;;;;;;;;5053050;28;19977;-67
2023/04/09 16:29:29;;;;;;;;;;;;;;;;;;5053561;28;19969;-66
2023/04/09 16:31:56;;;;;;;;;;;;;;;;;;5053342;28;20001;-67
2023/04/09 16:34:23;;;;;;;;;;;;;;;;;;5053671;28;19961;-66
2023/04/09 16:36:50;;;;;;;;;;;;;;;;;;5053275;28;19981;-66